Tiempo atmosférico en la estación meteorológica de Tresviso, Cantabria (912 m.)



Fecha
DESCASC
Temp. máxima en grados centígrados (hora)
DESCASC
Temp. mínima en grados centígrados (hora)
DESCASC
Temp. media en grados centígrados
DESCASC
Racha de viento máxima en m/sg (hora)
DESCASC
Velocidad máxima media en intervalos de 10 minutos(hora)
DESCASC
Precipitaciones diarias en mm
DESCASC
Precipitaciones de 00:00 a 06:00 en mm
DESCASC
Precipitaciones de 06:00 a 12:00 en mm
DESCASC
Precipitaciones de 12:00 a 18:00 en mm
DESCASC
Precipitaciones de 18:00 a 24:00 en mm
DESCASC
17-10-2019 16.8 (14:10) 9.8 (22:30) 13.3 7.5 (15:10) 4.17 (15:10) 3.4 3.4 0 0 0
16-10-2019 16.6 (16:20) 9.5 (02:50) 13.1 5.83 (10:50) 3.89 (10:50) 4.2 0 2.6 0.2 1.4
15-10-2019 14 (15:40) 7 (00:00) 10.5 14.44 (01:50) 8.33 (01:50) 0.6 0 0 0 0.6
14-10-2019 18 (03:30) 7 (23:20) 12.5 20.56 (00:40) 11.39 (00:30) 7.2 0 4.8 2 0.4
13-10-2019 22.4 (15:00) 12.6 (00:00) 17.5 31.11 (03:00) 15.28 (02:20) 0 0 0 0 0
12-10-2019 25.2 (16:40) 16.5 (00:00) 20.9 24.44 (23:40) 14.72 (23:40) 0 0 0 0 0
11-10-2019 23.8 (16:40) 14.4 (00:00) 19.1 7.5 (18:50) 2.78 (06:10) 0 0 0 0 0
10-10-2019 16.5 (17:40) 7.5 (00:00) 12 3.89 (00:30) 2.78 (00:40) -- -- -- -- --
09-10-2019 15.4 (13:40) 8.8 (00:00) 12.1 10.83 (13:50) 5.56 (08:30) -- 0.6 0 -- --
08-10-2019 22 (14:40) 11 (00:00) 16.5 10 (13:00) 4.72 (13:10) 0.8 0 0 0 0.8
07-10-2019 20.6 (15:40) 9.8 (00:00) 15.2 5 (15:50) 2.78 (06:30) 0 0 0 0 0
06-10-2019 13.9 (13:10) 10.6 (00:00) 12.3 9.17 (02:10) 6.94 (02:10) 0 0 0 0 0
05-10-2019 15.8 (13:10) 9.5 (00:00) 12.7 7.22 (23:20) 4.72 (23:10) 0.8 0.6 0 0.2 0
04-10-2019 14.3 (01:00) 11 (00:00) 12.7 5 (04:00) 2.22 (12:00) 2.6 0 0.2 0.8 1.6
03-10-2019 20.4 (16:20) 9.2 (00:00) 14.8 8.89 (15:40) 5.56 (15:40) 0.4 0.4 0 0 0
02-10-2019 17.6 (17:10) 9.9 (00:00) 13.8 14.17 (01:10) 8.06 (02:20) 0 0 0 0 0
01-10-2019 20.6 (15:20) 11.7 (00:00) 16.2 8.61 (23:20) 5 (06:30) 0 0 0 0 0
30-09-2019 23.1 (17:50) 13.4 (00:00) 18.3 4.44 (16:20) 2.22 (22:00) 0.2 0 0 0 0.2
29-09-2019 23.3 (16:30) 13.5 (00:00) 18.4 5.83 (17:10) 3.33 (17:10) 0 0 0 0 0
28-09-2019 19.5 (18:10) 10.3 (00:00) 14.9 3.33 (06:30) 2.22 (23:59) 2 1.8 0.2 0 0
27-09-2019 19.8 (14:10) 10.9 (00:00) 15.3 7.22 (03:10) 4.72 (03:00) 1.6 0 0 0.2 1.4
26-09-2019 20 (16:40) 10.6 (00:00) 15.3 4.17 (14:00) 1.94 (05:50) 0 0 0 0 0
25-09-2019 18 (15:20) 10.6 (00:00) 14.3 9.17 (04:50) 4.44 (04:50) 0 0 0 0 0
24-09-2019 17.5 (04:40) 11 (00:00) 14.3 9.17 (10:50) 4.17 (10:50) 3.4 0.2 1 0.8 1.4
23-09-2019 18.6 (14:40) 10.3 (00:00) 14.5 6.11 (22:10) 3.89 (22:10) 1.6 0 0 0 1.6
22-09-2019 17.4 (14:10) 10.9 (00:00) 14.1 7.5 (16:00) 4.17 (19:50) 4.2 2 0.2 0 2
21-09-2019 22.3 (17:20) 15.1 (00:00) 18.7 20 (21:50) 12.22 (21:50) 0 0 0 0 0
20-09-2019 24.7 (14:30) 14.6 (00:00) 19.7 10.83 (18:00) 5 (18:00) 0 0 0 0 0

Gráficas

Temp. máximas Temp. mínimas Temp. medias Precipitaciones Rachas de viento máximas Velocidades máximas media en intervalos de 10 minutos

Datos horarios

Fecha y hora oficial Temperatura (ºC) Velocidad del viento (km/h) Dirección del viento Racha (km/h) Dirección de racha Precipitación (mm) Presión (hPa) Tendencia (hPa) Humedad (%)
2019-10-19 23:00:00 7.5 2 Este 9 Sudoeste 1.8 -- -- 98
2019-10-19 22:00:00 7.8 4 Sudoeste 6 Sur 2.2 -- -- 98
2019-10-19 21:00:00 8 4 Nordeste 8 Nordeste 2.8 -- -- 98
2019-10-19 20:00:00 8.4 5 Oeste 17 Sudoeste 4 -- -- 98
2019-10-19 19:00:00 8.7 3 Sur 8 Sudoeste 5.2 -- -- 98
2019-10-19 18:00:00 8.9 4 Sur 10 Norte 4.2 -- -- 98
2019-10-19 17:00:00 9.1 5 Oeste 12 Nordeste 3.4 -- -- 98
2019-10-19 16:00:00 9.5 8 Nordeste 16 Nordeste 3 -- -- 98
2019-10-19 15:00:00 9.7 10 Nordeste 19 Nordeste 1.4 -- -- 98
2019-10-19 14:00:00 9.7 11 Nordeste 17 Nordeste 1.4 -- -- 98
2019-10-19 13:00:00 9.5 11 Nordeste 18 Nordeste 0.8 -- -- 98
2019-10-19 12:00:00 9.4 12 Nordeste 18 Nordeste 0.2 -- -- 97
2019-10-19 11:00:00 9.5 9 Nordeste 13 Nordeste 1.2 -- -- 97
2019-10-19 10:00:00 9.4 4 Nordeste 13 Nordeste 0 -- -- 96
2019-10-19 09:00:00 8.8 3 Norte 8 Norte 0 -- -- 95
2019-10-19 08:00:00 9.1 3 Sudoeste 8 Oeste 0 -- -- 92
2019-10-19 07:00:00 9.3 2 Norte 9 Sur 0 -- -- 88
2019-10-19 06:00:00 10.1 6 Norte 13 Norte 0 -- -- 84
2019-10-19 05:00:00 9.9 4 Norte 10 Norte 0 -- -- 82
2019-10-19 04:00:00 10 2 Nordeste 9 Norte 0.2 -- -- 80
2019-10-19 03:00:00 9.9 4 Norte 8 Sudoeste 0.4 -- -- 85
2019-10-19 02:00:00 10 2 Noroeste 8 Nordeste 0 -- -- 81
2019-10-19 01:00:00 10.5 3 Sudoeste 13 Noroeste 0 -- -- 74
2019-10-19 00:00:00 10.3 8 Noroeste 12 Noroeste 0.4 -- -- 80
2019-10-18 23:00:00 11.2 4 Sudoeste 11 Norte 0 -- -- 72
2019-10-18 22:00:00 10.8 0 Calma 7 Noroeste 0 -- -- 77
2019-10-18 21:00:00 10.7 0 Calma 10 Noroeste 0 -- -- 85
2019-10-18 20:00:00 10.2 4 Sudoeste 6 Oeste 0 -- -- 93
2019-10-18 19:00:00 10.6 0 Calma 9 Norte 0 -- -- 92
2019-10-18 18:00:00 10.6 2 Norte 13 Nordeste 0 -- -- 91
2019-10-18 17:00:00 11.4 10 Nordeste 17 Nordeste 0 -- -- 85
2019-10-18 16:00:00 11.7 8 Nordeste 17 Nordeste 0 -- -- 84
2019-10-18 15:00:00 12.4 5 Nordeste 12 Nordeste 0 -- -- 81
2019-10-18 14:00:00 12.3 2 Este 10 Nordeste 0 -- -- 79
2019-10-18 13:00:00 12.1 3 Este 9 Sudeste 0 -- -- 83
2019-10-18 12:00:00 11.8 3 Sudeste 9 Sudeste 0 -- -- 84
2019-10-18 11:00:00 10.3 3 Sudeste 6 Sudeste 0 -- -- 90
2019-10-18 10:00:00 9.5 0 Calma 6 Norte 0 -- -- 90
2019-10-18 09:00:00 9.2 3 Norte 14 Sudoeste 0 -- -- 90
2019-10-18 08:00:00 9.2 8 Sudoeste 21 Sudoeste 0 -- -- 95
2019-10-18 07:00:00 9.5 0 Calma 20 Oeste 0 -- -- 97
2019-10-18 06:00:00 9.7 8 Oeste 17 Noroeste 0.2 -- -- 97
2019-10-18 05:00:00 9.9 3 Nordeste 6 Nordeste 0 -- -- 98
2019-10-18 04:00:00 10 5 Sudoeste 8 Sudoeste 0 -- -- 98
2019-10-18 03:00:00 10 3 Sudoeste 8 Oeste 0.2 -- -- 98
2019-10-18 02:00:00 9.8 6 Sudoeste 9 Sudoeste 0 -- -- 98
2019-10-18 01:00:00 9.8 3 Nordeste 7 Nordeste 0 -- -- 98
2019-10-18 00:00:00 9.9 0 Calma 9 Sudoeste 0 -- -- 98
2019-10-17 23:00:00 9.9 4 Oeste 9 Sur 0 -- -- 98
2019-10-17 22:00:00 10.1 3 Sudoeste 9 Sudoeste 0 -- -- 97
2019-10-17 21:00:00 10.4 2 Sur 5 Nordeste 0 -- -- 97
2019-10-17 20:00:00 10.8 2 Este 6 Sur 0 -- -- 96
2019-10-17 19:00:00 11.2 3 Sur 7 Sur 0 -- -- 96
2019-10-17 18:00:00 11.1 6 Nordeste 16 Norte 0 -- -- 95
2019-10-17 17:00:00 12 8 Nordeste 21 Nordeste 0 -- -- 93
2019-10-17 16:00:00 13.1 3 Este 27 Nordeste 0 -- -- 91
2019-10-17 15:00:00 13.8 13 Norte 23 Norte 0 -- -- 85
2019-10-17 14:00:00 16.5 8 Sur 14 Sur 0 -- -- 81
2019-10-17 13:00:00 16.4 4 Este 14 Nordeste 0 -- -- 68
2019-10-17 12:00:00 15.4 4 Este 9 Sur 0 -- -- 72
2019-10-17 11:00:00 13.6 4 Sur 10 Sur 0 -- -- 82
2019-10-17 10:00:00 11.2 5 Sur 8 Norte 0 -- -- 88
2019-10-17 09:00:00 10.5 5 Nordeste 10 Nordeste 0 -- -- 86
2019-10-17 08:00:00 10.5 6 Norte 12 Norte 0 -- -- 86
2019-10-17 07:00:00 11.1 4 Norte 14 Norte 0 -- -- 84
2019-10-17 06:00:00 11 6 Nordeste 12 Este 0 -- -- 85
2019-10-17 05:00:00 11.4 7 Norte 12 Norte 0.2 -- -- 84
2019-10-17 04:00:00 11.1 5 Noroeste 12 Norte 1.6 -- -- 89
2019-10-17 03:00:00 12.4 5 Noroeste 12 Nordeste 1.2 -- -- 80
2019-10-17 02:00:00 11.9 9 Nordeste 15 Nordeste 0.4 -- -- 84
2019-10-17 01:00:00 12.4 7 Norte 17 Norte 0 -- -- 80
2019-10-17 00:00:00 11.6 10 Nordeste 16 Nordeste 0 -- -- 84
2019-10-16 23:00:00 11.7 5 Norte 14 Nordeste 0 -- -- 83
2019-10-16 22:00:00 11.4 6 Nordeste 17 Nordeste 0.4 -- -- 87
2019-10-16 21:00:00 11.5 7 Nordeste 19 Nordeste 0 -- -- 86
2019-10-16 20:00:00 11.1 9 Nordeste 14 Nordeste 0.6 -- -- 88
2019-10-16 19:00:00 12.2 7 Norte 14 Norte 0.4 -- -- 83
2019-10-16 18:00:00 13.7 5 Nordeste 16 Sudeste 0.2 -- -- 73
2019-10-16 17:00:00 15.2 9 Nordeste 18 Este 0 -- -- 66
2019-10-16 16:00:00 15.7 8 Nordeste 17 Este 0 -- -- 66
2019-10-16 15:00:00 14.7 5 Nordeste 12 Nordeste 0 -- -- 69
2019-10-16 14:00:00 14.5 9 Nordeste 17 Nordeste 0 -- -- 70
2019-10-16 13:00:00 14.9 8 Este 14 Nordeste 0 -- -- 73
2019-10-16 12:00:00 12 4 Nordeste 13 Oeste 0.2 -- -- 79
2019-10-16 11:00:00 10 9 Nordeste 21 Norte 0.8 -- -- 86
2019-10-16 10:00:00 9.7 5 Norte 13 Norte 0.8 -- -- 89
2019-10-16 09:00:00 9.8 5 Norte 14 Norte 0.8 -- -- 88
2019-10-16 08:00:00 10.8 5 Nordeste 11 Norte 0 -- -- 79
2019-10-16 07:00:00 10.8 6 Norte 10 Norte 0 -- -- 76
2019-10-16 06:00:00 10.7 6 Norte 10 Norte 0 -- -- 74
2019-10-16 05:00:00 10.6 5 Norte 14 Nordeste 0 -- -- 74
2019-10-16 04:00:00 10.3 12 Norte 15 Nordeste 0 -- -- 75
2019-10-16 03:00:00 9.6 8 Norte 13 Norte 0 -- -- 76
2019-10-16 02:00:00 9.7 8 Norte 12 Norte 0 -- -- 74
2019-10-16 01:00:00 9.6 5 Norte 8 Norte 0 -- -- 74
2019-10-16 00:00:00 10.5 6 Noroeste 16 Oeste 0 -- -- 69
2019-10-15 23:00:00 9.5 4 Noroeste 12 Oeste 0.4 -- -- 76
2019-10-15 22:00:00 10.3 0 Calma 11 Oeste 0.2 -- -- 71
2019-10-15 21:00:00 11.5 8 Oeste 15 Oeste 0 -- -- 60
2019-10-15 20:00:00 11.5 8 Noroeste 12 Noroeste 0 -- -- 58
2019-10-15 19:00:00 12 0 Calma 8 Nordeste 0 -- -- 58
2019-10-15 18:00:00 13.1 4 Nordeste 14 Sudeste 0 -- -- 54
2019-10-15 17:00:00 13.1 4 Este 18 Este 0 -- -- 55
2019-10-15 16:00:00 13.8 4 Nordeste 15 Este 0 -- -- 51
2019-10-15 15:00:00 13.5 5 Nordeste 14 Nordeste 0 -- -- 52
2019-10-15 14:00:00 13.1 6 Este 13 Nordeste 0 -- -- 52
2019-10-15 13:00:00 11.7 7 Nordeste 14 Este 0 -- -- 54
2019-10-15 12:00:00 11.5 5 Este 18 Sur 0 -- -- 54
2019-10-15 11:00:00 10.9 10 Sur 22 Sudoeste 0 -- -- 58
2019-10-15 10:00:00 8.6 3 Nordeste 21 Sudoeste 0 -- -- 61
2019-10-15 09:00:00 8.4 9 Sudoeste 26 Sur 0 -- -- 60
2019-10-15 08:00:00 7.7 6 Oeste 41 Oeste 0 -- -- 59
2019-10-15 07:00:00 8.3 23 Oeste 48 Oeste 0 -- -- 52
2019-10-15 06:00:00 7.9 16 Sudoeste 47 Sudoeste 0 -- -- 59
2019-10-15 05:00:00 8.1 22 Oeste 45 Sudoeste 0 -- -- 61
2019-10-15 04:00:00 7.5 13 Oeste 33 Sudoeste 0 -- -- 62
2019-10-15 03:00:00 7.5 18 Oeste 42 Oeste 0 -- -- 61
2019-10-15 02:00:00 7.4 20 Oeste 52 Sudoeste 0 -- -- 63
2019-10-15 01:00:00 7.4 26 Oeste 50 Sudoeste 0 -- -- 65
2019-10-15 00:00:00 7 11 Oeste 31 Oeste 0 -- -- 69
2019-10-14 23:00:00 7.1 8 Sudoeste 27 Sudoeste 0 -- -- 70
2019-10-14 22:00:00 7.1 10 Oeste 29 Oeste 0 -- -- 79
2019-10-14 21:00:00 7.2 18 Oeste 36 Oeste 0 -- -- 81
2019-10-14 20:00:00 7.9 10 Oeste 33 Sudoeste 0 -- -- 77
2019-10-14 19:00:00 8.3 11 Oeste 28 Oeste 0.4 -- -- 81
2019-10-14 18:00:00 9.4 16 Sudoeste 38 Sudoeste 1.8 -- -- 88
2019-10-14 17:00:00 11.5 6 Sur 21 Nordeste 0 -- -- 80
2019-10-14 16:00:00 13.2 9 Nordeste 18 Nordeste 0 -- -- 61
2019-10-14 15:00:00 13.4 5 Nordeste 13 Nordeste 0 -- -- 74
2019-10-14 14:00:00 14 5 Sur 16 Este 0 -- -- 66
2019-10-14 13:00:00 11.9 6 Sudeste 14 Nordeste 0.2 -- -- 86
2019-10-14 12:00:00 8.4 6 Noroeste 12 Sur -- -- -- 97
2019-10-14 11:00:00 8.1 6 Sur 15 Nordeste -- -- -- 96
2019-10-14 10:00:00 7.9 12 Nordeste 24 Nordeste -- -- -- 96
2019-10-14 09:00:00 9.5 8 Nordeste 14 Este -- -- -- 97
2019-10-14 08:00:00 10.2 5 Sur 14 Nordeste -- -- -- 96
2019-10-14 07:00:00 11.2 8 Este 17 Sur -- -- -- 95
2019-10-14 06:00:00 12.8 8 Sudoeste 39 Nordeste -- -- -- 86
2019-10-14 05:00:00 17.3 10 Sudeste 62 Este -- -- -- 51
2019-10-14 04:00:00 17.4 12 Sur 39 Oeste -- -- -- 49
2019-10-14 03:00:00 17.2 18 Sudeste 59 Sur -- -- -- 47
2019-10-14 02:00:00 16.7 17 Sur 57 Sudoeste -- -- -- 47
2019-10-14 01:00:00 17.2 27 Sur 74 Sudoeste -- -- -- 45
2019-10-14 00:00:00 16.3 28 Sur 69 Sur -- -- -- 48
2019-10-13 23:00:00 15.5 25 Sudoeste 60 Sudoeste -- -- -- 68
2019-10-13 22:00:00 12.8 13 Sur 34 Sur -- -- -- 86
2019-10-13 21:00:00 12.9 7 Oeste 27 Sudoeste -- -- -- 87
2019-10-13 20:00:00 14.4 4 Norte 15 Nordeste -- -- -- 81
2019-10-13 19:00:00 15.8 9 Este 16 Nordeste -- -- -- 73
2019-10-13 18:00:00 16.6 6 Este 20 Sudeste -- -- -- 71
2019-10-13 17:00:00 17.3 8 Este 32 Sudeste -- -- -- 64
2019-10-13 16:00:00 19 11 Este 37 Sur -- -- -- 56
2019-10-13 15:00:00 22.4 15 Sur 33 Sur -- -- -- 45
2019-10-13 14:00:00 19.8 9 Nordeste 31 Nordeste 0 -- -- 54
2019-10-13 13:00:00 18.7 19 Nordeste 55 Sudoeste 0 -- -- 54
2019-10-13 12:00:00 20.2 48 Sudoeste 77 Sudoeste 0 -- -- 42
2019-10-13 11:00:00 19.6 32 Sudoeste 56 Sudoeste 0 -- -- 41
2019-10-13 10:00:00 18.7 41 Sudoeste 94 Oeste 0 -- -- 38
2019-10-13 09:00:00 20 51 Sudoeste 100 Sudoeste 0 -- -- 27
2019-10-13 08:00:00 18.6 32 Sudoeste 90 Sudoeste 0 -- -- 37
2019-10-13 07:00:00 18.6 46 Sudoeste 91 Sudoeste 0 -- -- 41
2019-10-13 06:00:00 18.9 37 Sudoeste 99 Oeste 0 -- -- 42
2019-10-13 05:00:00 19.4 26 Sudoeste 93 Sur 0 -- -- 38
2019-10-13 04:00:00 20.2 35 Sudoeste 100 Sudoeste 0 -- -- 32
2019-10-13 03:00:00 20.5 49 Sudoeste 112 Sudoeste 0 -- -- 36
2019-10-13 02:00:00 21.3 50 Sudoeste 104 Sudoeste 0 -- -- 32
2019-10-13 01:00:00 21.5 44 Sur 105 Sur 0 -- -- 35
2019-10-13 00:00:00 22 41 Sudoeste 88 Sudoeste 0 -- -- 36
2019-10-12 23:00:00 22 23 Sudoeste 59 Sur 0 -- -- 37
2019-10-12 22:00:00 22.1 14 Sur 48 Sudoeste 0 -- -- 38
2019-10-12 21:00:00 22.1 15 Sudoeste 41 Sur 0 -- -- 38
2019-10-12 20:00:00 21.4 22 Oeste 60 Oeste 0 -- -- 40
2019-10-12 19:00:00 23.4 31 Sudoeste 61 Sudoeste 0 -- -- 33
2019-10-12 18:00:00 24.4 21 Sudoeste 81 Sudoeste 0 -- -- 35
2019-10-12 17:00:00 24.8 23 Sudoeste 65 Sur 0 -- -- 35
2019-10-12 16:00:00 24.1 28 Sur 78 Sur 0 -- -- 38
2019-10-12 15:00:00 24.1 24 Sur 76 Sudoeste 0 -- -- 39
2019-10-12 14:00:00 23.5 37 Sur 77 Sur 0 -- -- 37
2019-10-12 13:00:00 22.7 27 Sudoeste 59 Sur 0 -- -- 37
2019-10-12 12:00:00 21.3 27 Sur 78 Sudoeste 0 -- -- 38
2019-10-12 11:00:00 20.8 37 Sudoeste 79 Sudoeste 0 -- -- 36
2019-10-12 10:00:00 19.4 23 Sur 48 Sur 0 -- -- 40
2019-10-12 09:00:00 19.2 7 Sudoeste 43 Sudoeste 0 -- -- 40
2019-10-12 08:00:00 20.2 19 Sudoeste 63 Sudoeste 0 -- -- 37
2019-10-12 07:00:00 21.3 41 Sudoeste 71 Sudoeste 0 -- -- 36
2019-10-12 06:00:00 21 44 Sudoeste 70 Sudoeste 0 -- -- 41
2019-10-12 05:00:00 17.6 10 Nordeste 18 Nordeste 0 -- -- 60
2019-10-12 04:00:00 18.3 5 Nordeste 27 Sudoeste 0 -- -- 59
2019-10-12 03:00:00 20.6 21 Sudoeste 47 Sudoeste 0 -- -- 51
2019-10-12 02:00:00 17.5 3 Sudoeste 15 Nordeste 0 -- -- 60
2019-10-12 01:00:00 17.2 8 Nordeste 19 Nordeste 0 -- -- 62
2019-10-12 00:00:00 16.5 8 Nordeste 12 Norte 0 -- -- 65
2019-10-11 23:00:00 15.4 5 Oeste 18 Oeste 0 -- -- 70
2019-10-11 22:00:00 17.8 4 Este 12 Sudoeste 0 -- -- 62
2019-10-11 21:00:00 20.6 3 Noroeste 12 Sudoeste 0 -- -- 46
2019-10-11 20:00:00 20.8 3 Oeste 10 Noroeste 0 -- -- 45
2019-10-11 19:00:00 22 3 Sur 27 Sur 0 -- -- 44
2019-10-11 18:00:00 22.4 4 Sudoeste 9 Sur 0 -- -- 53
2019-10-11 17:00:00 23.6 3 Este 14 Sur 0 -- -- 41
2019-10-11 16:00:00 22.8 4 Este 11 Sudeste 0 -- -- 43
2019-10-11 15:00:00 23.5 5 Sudeste 13 Sudeste 0 -- -- 43
2019-10-11 14:00:00 23.2 5 Sudeste 11 Sur 0 -- -- 43
2019-10-11 13:00:00 22.3 4 Nordeste 10 Sudeste 0 -- -- 35
2019-10-11 12:00:00 21.4 4 Sudeste 10 Sur 0 -- -- 45
2019-10-11 11:00:00 19.5 2 Nordeste 8 Nordeste 0 -- -- 41
2019-10-11 10:00:00 17.7 4 Norte 10 Norte 0 -- -- 43
2019-10-11 09:00:00 16.2 5 Norte 13 Norte 0 -- -- 43
2019-10-11 08:00:00 15.8 6 Norte 13 Noroeste 0 -- -- 42
2019-10-11 07:00:00 16 4 Noroeste 14 Norte 0 -- -- 42
2019-10-11 06:00:00 14.4 9 Norte 13 Norte 0 -- -- 49
2019-10-11 05:00:00 15.3 3 Norte 12 Norte 0 -- -- 48
2019-10-11 04:00:00 15.3 5 Norte 10 Noroeste 0 -- -- 52
2019-10-11 03:00:00 14.9 4 Norte 8 Norte 0 -- -- 55
2019-10-11 02:00:00 15.4 5 Noroeste 9 Noroeste 0 -- -- 53
2019-10-11 01:00:00 14.5 4 Norte 6 Norte 0 -- -- 59
2019-10-11 00:00:00 14.4 2 Norte 7 Norte 0 -- -- 61
2019-10-10 23:00:00 13.4 4 Norte 7 Noroeste 0 -- -- 69
2019-10-10 22:00:00 12.5 2 Noroeste 7 Noroeste 0 -- -- 82
2019-10-10 21:00:00 12 5 Sudoeste 7 Sudoeste 0 -- -- 90
2019-10-10 20:00:00 12.5 2 Nordeste 5 Nordeste 0 -- -- 87
2019-10-10 19:00:00 14.9 2 Nordeste 8 Oeste 0 -- -- 76
2019-10-10 18:00:00 16.2 3 Sudeste 9 Este 0 -- -- 73
2019-10-10 17:00:00 15.3 4 Nordeste 8 Nordeste 0 -- -- 72
2019-10-10 16:00:00 15.6 4 Este 11 Sudeste 0 -- -- 68
2019-10-10 15:00:00 15 5 Nordeste 12 Nordeste 0 -- -- 70
2019-10-10 14:00:00 14.2 5 Este 10 Sur 0 -- -- 67
2019-10-10 13:00:00 14.4 4 Sudeste 10 Sudeste 0 -- -- 71
2019-10-10 12:00:00 13.3 3 Este 9 Sudeste 0 -- -- 74
2019-10-10 11:00:00 11.7 3 Sudeste 9 Sudeste 0 -- -- 82
2019-10-10 10:00:00 9.2 0 Calma 6 Nordeste 0 -- -- 88
2019-10-10 09:00:00 7.7 5 Norte 6 Norte 0 -- -- 93
2019-10-10 08:00:00 7.8 2 Nordeste 5 Norte 0 -- -- 92
2019-10-10 07:00:00 7.8 3 Norte 8 Noroeste 0 -- -- 92
2019-10-10 06:00:00 8.2 6 Norte 10 Norte 0 -- -- 88
2019-10-10 05:00:00 8.4 4 Oeste 10 Noroeste 0 -- -- 92
2019-10-10 04:00:00 8.4 2 Noroeste 8 Noroeste 0 -- -- 90
2019-10-10 03:00:00 8.6 3 Sur 6 Sudoeste 0 -- -- 93
2019-10-10 02:00:00 9.1 2 Sudoeste 13 Oeste 0 -- -- 90
2019-10-10 01:00:00 9.8 7 Oeste 14 Oeste 0 -- -- 81
2019-10-10 00:00:00 9.4 8 Oeste 12 Oeste 0 -- -- 90
2019-10-09 23:00:00 9.4 4 Sur 8 Sudeste 0 -- -- 94
2019-10-09 22:00:00 9.2 2 Norte 8 Sudoeste 0 -- -- 93
2019-10-09 21:00:00 10 2 Sur 5 Sur 0 -- -- 92
2019-10-09 20:00:00 10.3 5 Sudoeste 12 Oeste 0 -- -- 91
2019-10-09 19:00:00 11.1 5 Sudoeste 18 Oeste 0 -- -- 83
2019-10-09 18:00:00 12.1 8 Sudoeste 15 Sur 0 -- -- 74
2019-10-09 17:00:00 12.3 5 Nordeste 16 Sudoeste 0 -- -- 73
2019-10-09 16:00:00 12.6 5 Norte 12 Nordeste 0 -- -- 72
2019-10-09 15:00:00 12.7 8 Nordeste 23 Noroeste 0 -- -- 72
2019-10-09 14:00:00 14.6 11 Oeste 39 Nordeste 0 -- -- 69
2019-10-09 13:00:00 13.9 6 Este 28 Sudoeste 0 -- -- 68
2019-10-09 12:00:00 12.1 11 Sudoeste 22 Sudoeste 0 -- -- 68
2019-10-09 11:00:00 11.7 12 Oeste 22 Oeste 0 -- -- 69
2019-10-09 10:00:00 10.5 8 Sudoeste 18 Oeste 0 -- -- 71
2019-10-09 09:00:00 9.1 14 Oeste 30 Oeste 0 -- -- 78
2019-10-09 08:00:00 9.3 15 Noroeste 28 Oeste 0 -- -- 83
2019-10-09 07:00:00 9.9 17 Noroeste 30 Oeste 0 -- -- 82
2019-10-09 06:00:00 9.7 17 Oeste 30 Oeste 0 -- -- 91
2019-10-09 05:00:00 9.8 18 Oeste 28 Oeste 0 -- -- 90
2019-10-09 04:00:00 9.2 19 Oeste 28 Oeste 0 -- -- 95
2019-10-09 03:00:00 9.5 6 Norte 23 Oeste 0 -- -- 97
2019-10-09 02:00:00 9.8 8 Sudoeste 14 Sudoeste 0.6 -- -- 97
2019-10-09 01:00:00 10.2 11 Sudoeste 22 Sudoeste 0 -- -- 98
2019-10-09 00:00:00 11 6 Sur 9 Sur 0.4 -- -- 98
2019-10-08 23:00:00 11.1 4 Sudoeste 10 Sur 0 -- -- 97
2019-10-08 22:00:00 11.4 3 Sur 6 Sur 0.2 -- -- 97
2019-10-08 21:00:00 11.6 3 Sudeste 8 Sur 0.2 -- -- 97
2019-10-08 20:00:00 11.8 5 Sur 11 Sur 0 -- -- 96
2019-10-08 19:00:00 13 3 Sur 13 Sur 0 -- -- 95
2019-10-08 18:00:00 13.6 8 Sudoeste 23 Oeste 0 -- -- 92
2019-10-08 17:00:00 14.7 8 Noroeste 29 Oeste 0 -- -- 86
2019-10-08 16:00:00 16.3 10 Noroeste 27 Oeste 0 -- -- 88
2019-10-08 15:00:00 20.7 4 Este 24 Sudoeste 0 -- -- 67
2019-10-08 14:00:00 20.7 13 Sudoeste 31 Oeste 0 -- -- 66
2019-10-08 13:00:00 20.1 16 Oeste 36 Sudoeste 0 -- -- 67
2019-10-08 12:00:00 19.2 6 Sur 12 Sur 0 -- -- 66
2019-10-08 11:00:00 18.1 5 Sur 8 Sur 0 -- -- 67
2019-10-08 10:00:00 16.3 3 Este 6 Este 0 -- -- 65
2019-10-08 09:00:00 15.4 2 Nordeste 11 Norte 0 -- -- 63
2019-10-08 08:00:00 15.1 4 Norte 13 Oeste 0 -- -- 63
2019-10-08 07:00:00 14.4 0 Calma 6 Norte 0 -- -- 67
2019-10-08 06:00:00 14.1 3 Norte 6 Norte 0 -- -- 68
2019-10-08 05:00:00 13.9 0 Calma 3 Norte 0 -- -- 70
2019-10-08 04:00:00 14 0 Calma 5 Norte 0 -- -- 70
2019-10-08 03:00:00 14.2 4 Norte 7 Norte 0 -- -- 67
2019-10-08 02:00:00 14.5 5 Oeste 8 Oeste 0 -- -- 68
2019-10-08 01:00:00 14.4 2 Norte 6 Oeste 0 -- -- 67
2019-10-08 00:00:00 14.6 7 Sudoeste 8 Sudoeste 0 -- -- 65
2019-10-07 23:00:00 15.5 0 Calma 5 Sudoeste 0 -- -- 56
2019-10-07 22:00:00 16 3 Oeste 5 Oeste 0 -- -- 52
2019-10-07 21:00:00 16.1 0 Calma 7 Sur 0 -- -- 53
2019-10-07 20:00:00 16.1 3 Norte 4 Norte 0 -- -- 60
2019-10-07 19:00:00 18.4 0 Calma 6 Sudeste 0 -- -- 62
2019-10-07 18:00:00 19.6 3 Este 9 Sudoeste 0 -- -- 55
2019-10-07 17:00:00 19.8 3 Sudeste 12 Sur 0 -- -- 53
2019-10-07 16:00:00 19.8 4 Este 18 Sudeste 0 -- -- 56
2019-10-07 15:00:00 20.2 6 Sudeste 10 Sudeste 0 -- -- 54
2019-10-07 14:00:00 19 5 Sur 10 Sudeste 0 -- -- 58
2019-10-07 13:00:00 18.4 4 Sur 10 Sur 0 -- -- 57
2019-10-07 12:00:00 17 5 Sur 10 Sudeste 0 -- -- 58
2019-10-07 11:00:00 14.7 2 Nordeste 12 Este 0 -- -- 74
2019-10-07 10:00:00 13.1 3 Nordeste 10 Este 0 -- -- 58
2019-10-07 09:00:00 12 5 Norte 16 Oeste 0 -- -- 67
2019-10-07 08:00:00 11.6 3 Norte 13 Oeste 0 -- -- 69
2019-10-07 07:00:00 12.1 5 Noroeste 14 Oeste 0 -- -- 37
2019-10-07 06:00:00 10.1 0 Calma 5 Norte 0 -- -- 83
2019-10-07 05:00:00 10 5 Norte 8 Norte 0 -- -- 93
2019-10-07 04:00:00 10.1 3 Norte 6 Norte 0 -- -- 96
2019-10-07 03:00:00 9.9 5 Norte 9 Noroeste 0 -- -- 98
2019-10-07 02:00:00 10.2 2 Sudoeste 5 Norte 0 -- -- 98
2019-10-07 01:00:00 10.3 0 Calma 9 Norte 0 -- -- 98
2019-10-07 00:00:00 10.6 4 Norte 7 Nordeste 0 -- -- 98
2019-10-06 23:00:00 11 3 Sudoeste 6 Sudeste 0 -- -- 98
2019-10-06 22:00:00 11.2 2 Sudeste 7 Sur 0 -- -- 98
2019-10-06 21:00:00 11.4 3 Sudeste 6 Sur 0 -- -- 98
2019-10-06 20:00:00 11.9 0 Calma 5 Nordeste 0 -- -- 97
2019-10-06 19:00:00 12.5 5 Sur 8 Sur 0 -- -- 96
2019-10-06 18:00:00 13.3 4 Sudeste 17 Oeste 0 -- -- 93
2019-10-06 17:00:00 13.6 9 Oeste 21 Norte 0 -- -- 85
2019-10-06 16:00:00 13.1 9 Noroeste 31 Norte 0 -- -- 89
2019-10-06 15:00:00 13.6 14 Oeste 27 Oeste 0 -- -- 86
2019-10-06 14:00:00 13.4 9 Oeste 24 Sudoeste 0 -- -- 90
2019-10-06 13:00:00 13.8 12 Oeste 24 Noroeste 0 -- -- 91
2019-10-06 12:00:00 12.8 11 Oeste 30 Sudoeste 0 -- -- 93
2019-10-06 11:00:00 12.2 13 Sudoeste 29 Oeste 0 -- -- 96
2019-10-06 10:00:00 12.4 3 Norte 16 Oeste 0 -- -- 95
2019-10-06 09:00:00 12.2 9 Sudoeste 21 Sudoeste 0 -- -- 93
2019-10-06 08:00:00 11.4 4 Oeste 10 Oeste 0 -- -- 96
2019-10-06 07:00:00 11.1 5 Nordeste 23 Noroeste 0 -- -- 95
2019-10-06 06:00:00 12.9 13 Oeste 24 Oeste 0 -- -- 85
2019-10-06 05:00:00 12.7 3 Sur 18 Oeste 0 -- -- 81
2019-10-06 04:00:00 13.2 13 Oeste 23 Oeste 0 -- -- 74
2019-10-06 03:00:00 12.5 14 Oeste 33 Oeste 0 -- -- 69
2019-10-06 02:00:00 12.4 21 Oeste 32 Oeste 0 -- -- 83
2019-10-06 01:00:00 11.1 0 Calma 12 Sudoeste 0 -- -- 93
2019-10-06 00:00:00 11.2 5 Norte 26 Noroeste 0 -- -- 96
2019-10-05 23:00:00 11.5 14 Sudoeste 26 Oeste 0 -- -- 96
2019-10-05 22:00:00 11.9 8 Norte 14 Nordeste 0 -- -- 97
2019-10-05 21:00:00 11.5 3 Noroeste 5 Este 0 -- -- 97
2019-10-05 20:00:00 11.8 4 Este 14 Oeste 0 -- -- 96
2019-10-05 19:00:00 11.9 4 Sur 6 Sur 0 -- -- 96
2019-10-05 18:00:00 12.4 0 Calma 7 Sudeste 0 -- -- 94
2019-10-05 17:00:00 13.2 3 Sur 6 Sur 0 -- -- 92
2019-10-05 16:00:00 13.3 3 Sur 7 Sudoeste 0 -- -- 91
2019-10-05 15:00:00 12.9 4 Nordeste 13 Este 0 -- -- 91
2019-10-05 14:00:00 14.2 5 Nordeste 10 Sur 0.2 -- -- 86
2019-10-05 13:00:00 15.5 4 Sudeste 9 Sudeste 0 -- -- 86
2019-10-05 12:00:00 13.4 3 Sudeste 8 Sur 0 -- -- 95
2019-10-05 11:00:00 11.6 3 Sudoeste 6 Sudoeste 0 -- -- 97
2019-10-05 10:00:00 10.8 0 Calma 7 Sur 0 -- -- 98
2019-10-05 09:00:00 9.6 0 Calma 6 Sudoeste 0 -- -- 98
2019-10-05 08:00:00 9.8 3 Oeste 8 Norte 0 -- -- 98
2019-10-05 07:00:00 9.9 5 Norte 8 Norte 0 -- -- 98
2019-10-05 06:00:00 10.2 4 Nordeste 8 Norte 0 -- -- 98
2019-10-05 05:00:00 10.4 2 Norte 8 Sudoeste 0 -- -- 98
2019-10-05 04:00:00 10.6 2 Sudoeste 6 Sudoeste 0 -- -- 98
2019-10-05 03:00:00 10.6 3 Sudoeste 8 Sudoeste 0.4 -- -- 98
2019-10-05 02:00:00 10.6 0 Calma 5 Nordeste 0 -- -- 98
2019-10-05 01:00:00 10.9 0 Calma 5 Sudoeste 0.2 -- -- 98
2019-10-05 00:00:00 11 3 Sudoeste 5 Sudoeste 0.4 -- -- 98
2019-10-04 23:00:00 11.2 3 Sudoeste 5 Sudoeste 0.4 -- -- 98
2019-10-04 22:00:00 11.5 2 Sur 5 Sur 0.2 -- -- 98
2019-10-04 21:00:00 11.7 3 Sur 6 Sur 0.2 -- -- 97
2019-10-04 20:00:00 12.1 3 Sur 5 Sur 0.2 -- -- 97
2019-10-04 19:00:00 12.8 3 Sudeste 8 Sur 0.2 -- -- 96
2019-10-04 18:00:00 12.7 3 Sur 9 Sudeste 0 -- -- 96
2019-10-04 17:00:00 13.2 4 Sur 9 Sur 0.4 -- -- 96
2019-10-04 16:00:00 13.2 5 Sur 8 Sudoeste 0.4 -- -- 96
2019-10-04 15:00:00 13 4 Sur 8 Sur 0 -- -- 97
2019-10-04 14:00:00 13.3 5 Sur 9 Sudoeste 0 -- -- 96
2019-10-04 13:00:00 13 6 Sudoeste 11 Este 0 -- -- 97
2019-10-04 12:00:00 13.6 8 Nordeste 12 Este 0 -- -- 97
2019-10-04 11:00:00 12.5 0 Calma 6 Nordeste 0.2 -- -- 97
2019-10-04 10:00:00 12.2 3 Nordeste 4 Nordeste 0 -- -- 96
2019-10-04 09:00:00 12.2 2 Noroeste 5 Sudoeste 0 -- -- 95
2019-10-04 08:00:00 12.3 2 Sudoeste 6 Oeste 0 -- -- 94
2019-10-04 07:00:00 12.7 2 Oeste 9 Sudoeste 0 -- -- 91
2019-10-04 06:00:00 12.6 4 Sudoeste 8 Sudoeste 0 -- -- 85
2019-10-04 05:00:00 14 6 Oeste 10 Oeste 0 -- -- 86
2019-10-04 04:00:00 13.7 7 Noroeste 18 Noroeste 0 -- -- 85
2019-10-04 03:00:00 13.2 2 Noroeste 5 Sur 0 -- -- 80
2019-10-04 02:00:00 14 2 Norte 9 Norte 0 -- -- 75
2019-10-04 01:00:00 14.3 4 Sudoeste 6 Norte 0 -- -- 75
2019-10-04 00:00:00 13.9 4 Nordeste 6 Norte 0 -- -- 76
2019-10-03 23:00:00 14.2 3 Norte 6 Norte 0 -- -- 73
2019-10-03 22:00:00 14.8 0 Calma 19 Oeste 0 -- -- 72
2019-10-03 21:00:00 16.1 14 Oeste 23 Oeste 0 -- -- 64
2019-10-03 20:00:00 15.7 14 Oeste 26 Oeste 0 -- -- 66
2019-10-03 19:00:00 17.6 5 Sur 11 Sur 0 -- -- 66
2019-10-03 18:00:00 18.7 7 Sur 29 Sudoeste 0 -- -- 63
2019-10-03 17:00:00 18.8 16 Sur 32 Sudoeste 0 -- -- 64
2019-10-03 16:00:00 20.3 9 Sudeste 32 Sudoeste 0 -- -- 57
2019-10-03 15:00:00 18.8 4 Sudeste 12 Sur 0 -- -- 65
2019-10-03 14:00:00 17.8 4 Sudeste 15 Sur 0 -- -- 68
2019-10-03 13:00:00 17.3 6 Sur 11 Sudeste 0 -- -- 70
2019-10-03 12:00:00 16 4 Este 9 Sudeste 0 -- -- 68
2019-10-03 11:00:00 14.7 3 Sudeste 7 Sudeste 0 -- -- 80
2019-10-03 10:00:00 11.7 2 Norte 5 Norte 0 -- -- 87
2019-10-03 09:00:00 10.1 0 Calma 8 Sudoeste 0 -- -- 89
2019-10-03 08:00:00 9.5 2 Sudoeste 5 Norte 0 -- -- 92
2019-10-03 07:00:00 9.3 0 Calma 4 Sudoeste 0 -- -- 93
2019-10-03 06:00:00 9.8 2 Nordeste 6 Norte 0 -- -- 91
2019-10-03 05:00:00 9.8 5 Norte 8 Norte 0 -- -- 96
2019-10-03 04:00:00 9.9 0 Calma 5 Norte 0 -- -- 98
2019-10-03 03:00:00 10.4 4 Oeste 6 Noroeste 0.2 -- -- 98
2019-10-03 02:00:00 10.4 0 Calma 7 Sur 0 -- -- 98
2019-10-03 01:00:00 10.5 2 Norte 6 Sur 0.2 -- -- 97
2019-10-03 00:00:00 10.8 2 Este 6 Sudeste 0 -- -- 97
2019-10-02 23:00:00 11.1 0 Calma 7 Sur 0 -- -- 97
2019-10-02 22:00:00 11.4 3 Sudeste 6 Sudeste 0 -- -- 96
2019-10-02 21:00:00 11.6 3 Sur 8 Sur 0 -- -- 95
2019-10-02 20:00:00 11.9 3 Sur 6 Sur 0 -- -- 92
2019-10-02 19:00:00 12.6 3 Sudeste 9 Sur 0 -- -- 89
2019-10-02 18:00:00 14.2 5 Sur 12 Sudeste 0 -- -- 84
2019-10-02 17:00:00 17.5 8 Sur 16 Sur 0 -- -- 71
2019-10-02 16:00:00 16.5 6 Este 17 Sur 0 -- -- 69
2019-10-02 15:00:00 15.7 6 Sur 13 Sur 0 -- -- 72
2019-10-02 14:00:00 15.1 7 Sur 26 Oeste 0 -- -- 72
2019-10-02 13:00:00 13.8 19 Sudoeste 32 Oeste 0 -- -- 68
2019-10-02 12:00:00 13 19 Oeste 33 Oeste 0 -- -- 69
2019-10-02 11:00:00 11.4 20 Oeste 39 Oeste 0 -- -- 80
2019-10-02 10:00:00 10.2 27 Oeste 45 Oeste 0 -- -- 87
2019-10-02 09:00:00 10.1 18 Oeste 37 Sudoeste 0 -- -- 87
2019-10-02 08:00:00 10.4 21 Oeste 39 Oeste 0 -- -- 80
2019-10-02 07:00:00 10.6 19 Oeste 45 Oeste 0 -- -- 78
2019-10-02 06:00:00 11.4 24 Oeste 45 Sudoeste 0 -- -- 72
2019-10-02 05:00:00 11.6 20 Oeste 39 Oeste 0 -- -- 71
2019-10-02 04:00:00 12 23 Oeste 45 Sudoeste 0 -- -- 65
2019-10-02 03:00:00 12 22 Oeste 50 Sudoeste 0 -- -- 66
2019-10-02 02:00:00 11.8 22 Sudoeste 51 Sudoeste 0 -- -- 67
2019-10-02 01:00:00 11.5 19 Oeste 37 Oeste 0 -- -- 84
2019-10-02 00:00:00 11.7 15 Oeste 31 Oeste 0 -- -- 87
2019-10-01 23:00:00 12.1 14 Oeste 30 Noroeste 0 -- -- 88
2019-10-01 22:00:00 12.6 11 Oeste 24 Oeste 0 -- -- 89
2019-10-01 21:00:00 12.9 11 Oeste 20 Sudoeste 0 -- -- 89
2019-10-01 20:00:00 13.2 5 Sudoeste 17 Noroeste 0 -- -- 93
2019-10-01 19:00:00 13.6 4 Sur 9 Sur 0 -- -- 92
2019-10-01 18:00:00 13.9 2 Este 9 Nordeste 0 -- -- 92
2019-10-01 17:00:00 15.4 4 Nordeste 9 Norte 0 -- -- 87
2019-10-01 16:00:00 19 5 Nordeste 20 Sur 0 -- -- 74
2019-10-01 15:00:00 19.6 6 Este 15 Sudeste 0 -- -- 71
2019-10-01 14:00:00 17.9 5 Este 25 Sudeste 0 -- -- 73
2019-10-01 13:00:00 18.9 8 Sur 25 Sudoeste 0 -- -- 70
2019-10-01 12:00:00 16.2 9 Sudoeste 28 Noroeste 0 -- -- 76
2019-10-01 11:00:00 15.2 6 Oeste 30 Oeste 0 -- -- 82
2019-10-01 10:00:00 15.4 5 Este 22 Sudoeste 0 -- -- 86
2019-10-01 09:00:00 15.1 17 Sudoeste 29 Sudoeste 0 -- -- 79
2019-10-01 08:00:00 14.9 13 Noroeste 20 Oeste 0 -- -- 84
2019-10-01 07:00:00 15.3 13 Oeste 29 Noroeste 0 -- -- 85
2019-10-01 06:00:00 15.5 8 Oeste 24 Oeste 0 -- -- 87
2019-10-01 05:00:00 15.3 8 Sudoeste 17 Oeste 0 -- -- 88
2019-10-01 04:00:00 15 3 Sudoeste 10 Este 0 -- -- 90
2019-10-01 03:00:00 14.6 5 Noroeste 9 Sudoeste 0 -- -- 94
2019-10-01 02:00:00 14.7 2 Norte 8 Norte 0 -- -- 94
2019-10-01 01:00:00 14.7 3 Norte 5 Norte 0 -- -- 94
2019-10-01 00:00:00 15.4 4 Oeste 9 Oeste 0 -- -- 91
2019-09-30 23:00:00 15.3 3 Nordeste 9 Sudoeste 0.2 -- -- 92
2019-09-30 22:00:00 15.5 8 Sudoeste 10 Sudoeste 0 -- -- 91
2019-09-30 21:00:00 16.1 0 Calma 8 Sudoeste 0 -- -- 88
2019-09-30 20:00:00 17.6 6 Sur 8 Sur 0 -- -- 82
2019-09-30 19:00:00 21.1 5 Sur 10 Sur 0 -- -- 71
2019-09-30 18:00:00 23 5 Sur 13 Sur 0 -- -- 67
2019-09-30 17:00:00 21.6 3 Sudeste 16 Este 0 -- -- 70
2019-09-30 16:00:00 21.2 6 Nordeste 12 Nordeste 0 -- -- 68
2019-09-30 15:00:00 20.6 5 Nordeste 15 Nordeste 0 -- -- 68
2019-09-30 14:00:00 20.1 5 Este 13 Nordeste 0 -- -- 65
2019-09-30 13:00:00 19.6 6 Nordeste 9 Este 0 -- -- 67
2019-09-30 12:00:00 20.2 3 Este 7 Sur 0 -- -- 59
2019-09-30 11:00:00 18.6 3 Sudeste 8 Sudeste 0 -- -- 69
2019-09-30 10:00:00 16 0 Calma 5 Sudeste 0 -- -- 75
2019-09-30 09:00:00 14.5 0 Calma 7 Oeste 0 -- -- 76
2019-09-30 08:00:00 14.4 2 Noroeste 6 Sudoeste 0 -- -- 75
2019-09-30 07:00:00 14.8 5 Sudoeste 8 Oeste 0 -- -- 75
2019-09-30 06:00:00 14 0 Calma 8 Sudoeste 0 -- -- 81
2019-09-30 05:00:00 13.9 3 Sudeste 7 Sudoeste 0 -- -- 87
2019-09-30 04:00:00 13.8 3 Norte 7 Sudoeste 0 -- -- 90
2019-09-30 03:00:00 13.8 4 Norte 6 Norte 0 -- -- 89
2019-09-30 02:00:00 13.5 3 Sudoeste 7 Noroeste 0 -- -- 90
2019-09-30 01:00:00 13.5 0 Calma 6 Sudoeste 0 -- -- 91
2019-09-30 00:00:00 13.7 0 Calma 4 Nordeste 0 -- -- 91
2019-09-29 23:00:00 13.5 0 Calma 6 Sudoeste 0 -- -- 91
2019-09-29 22:00:00 13.6 3 Norte 7 Sudoeste 0 -- -- 88
2019-09-29 21:00:00 14.4 6 Sudoeste 9 Sudoeste 0 -- -- 82
2019-09-29 20:00:00 16.8 4 Sudoeste 8 Sur 0 -- -- 68
2019-09-29 19:00:00 19 3 Oeste 10 Sudeste 0 -- -- 62
2019-09-29 18:00:00 20.1 6 Sudeste 21 Norte 0 -- -- 60
2019-09-29 17:00:00 21.3 5 Norte 13 Nordeste 0 -- -- 50
2019-09-29 16:00:00 23 6 Sur 12 Nordeste 0 -- -- 44
2019-09-29 15:00:00 23 7 Sur 14 Sur 0 -- -- 41
2019-09-29 14:00:00 22.5 4 Este 12 Sur 0 -- -- 36
2019-09-29 13:00:00 22.7 4 Sur 12 Sudoeste 0 -- -- 38
2019-09-29 12:00:00 22.1 6 Sur 10 Sur 0 -- -- 36
2019-09-29 11:00:00 20.7 3 Nordeste 9 Este 0 -- -- 30
2019-09-29 10:00:00 18.8 4 Norte 10 Norte 0 -- -- 32
2019-09-29 09:00:00 17.2 7 Norte 13 Norte 0 -- -- 35
2019-09-29 08:00:00 17.2 5 Norte 10 Noroeste 0 -- -- 29
2019-09-29 07:00:00 16.8 5 Noroeste 8 Norte 0 -- -- 31
2019-09-29 06:00:00 17.1 3 Norte 11 Norte 0 -- -- 33
2019-09-29 05:00:00 17 6 Noroeste 11 Noroeste 0 -- -- 37
2019-09-29 04:00:00 17.7 0 Calma 8 Noroeste 0 -- -- 37
2019-09-29 03:00:00 17.5 3 Oeste 10 Sudoeste 0 -- -- 36
2019-09-29 02:00:00 17.4 3 Noroeste 11 Norte 0 -- -- 38
2019-09-29 01:00:00 17.4 6 Norte 9 Noroeste 0 -- -- 40
2019-09-29 00:00:00 16.7 8 Norte 11 Norte 0 -- -- 47
2019-09-28 23:00:00 16.4 4 Norte 7 Norte 0 -- -- 53
2019-09-28 22:00:00 15.9 3 Norte 11 Noroeste 0 -- -- 53
2019-09-28 21:00:00 16.1 4 Noroeste 7 Oeste 0 -- -- 49
2019-09-28 20:00:00 16.3 3 Noroeste 8 Sudoeste 0 -- -- 59
2019-09-28 19:00:00 18.8 4 Sudoeste 8 Sur 0 -- -- 64
2019-09-28 18:00:00 19.4 5 Sur 9 Sur 0 -- -- 68
2019-09-28 17:00:00 19.2 5 Sur 10 Sur 0 -- -- 77
2019-09-28 16:00:00 19 4 Sur 11 Sudeste 0 -- -- 75
2019-09-28 15:00:00 18.1 3 Este 12 Sur 0 -- -- 76
2019-09-28 14:00:00 17 3 Este 9 Sudoeste 0 -- -- 82
2019-09-28 13:00:00 15.6 4 Este 8 Sudeste 0 -- -- 87
2019-09-28 12:00:00 14.2 3 Este 8 Sudeste 0 -- -- 90
2019-09-28 11:00:00 12.2 4 Sudeste 8 Sur 0 -- -- 99
2019-09-28 10:00:00 11.1 3 Sudeste 10 Nordeste 0 -- -- 99
2019-09-28 09:00:00 10.3 5 Nordeste 8 Nordeste 0 -- -- 99
2019-09-28 08:00:00 10.3 4 Nordeste 10 Nordeste 0 -- -- 99
2019-09-28 07:00:00 10.6 3 Nordeste 12 Nordeste 0.2 -- -- 99
2019-09-28 06:00:00 10.7 2 Este 10 Nordeste 0.2 -- -- 99
2019-09-28 05:00:00 10.6 6 Nordeste 9 Nordeste 0.4 -- -- 99
2019-09-28 04:00:00 10.8 3 Nordeste 6 Nordeste 0.4 -- -- 98
2019-09-28 03:00:00 10.9 3 Sudeste 5 Sur 0.6 -- -- 98
2019-09-28 02:00:00 10.8 3 Nordeste 5 Este 0 -- -- 98
2019-09-28 01:00:00 10.9 2 Nordeste 5 Sudeste 0.2 -- -- 98
2019-09-28 00:00:00 10.9 0 Calma 5 Sudeste 0 -- -- 98
2019-09-27 23:00:00 10.9 0 Calma 11 Oeste 0 -- -- 98
2019-09-27 22:00:00 11.1 3 Sur 6 Sudeste 0 -- -- 97
2019-09-27 21:00:00 11.4 5 Sudeste 14 Sur 0.2 -- -- 97
2019-09-27 20:00:00 12.3 6 Sur 12 Sudeste 1 -- -- 97
2019-09-27 19:00:00 13.2 2 Nordeste 6 Sur 0.2 -- -- 97
2019-09-27 18:00:00 13.6 4 Sur 12 Este 0.2 -- -- 97
2019-09-27 17:00:00 13.9 7 Norte 23 Norte 0 -- -- 95
2019-09-27 16:00:00 16.7 4 Sudeste 19 Norte 0 -- -- 89
2019-09-27 15:00:00 17.7 13 Nordeste 23 Nordeste 0 -- -- 80
2019-09-27 14:00:00 19.7 5 Sudeste 11 Sudeste 0 -- -- 71
2019-09-27 13:00:00 18.3 4 Sudeste 12 Sur 0 -- -- 71
2019-09-27 12:00:00 17.1 5 Sudeste 12 Sudeste 0 -- -- 75
2019-09-27 11:00:00 15.8 3 Sudeste 9 Nordeste 0 -- -- 80
2019-09-27 10:00:00 13.4 5 Nordeste 9 Nordeste 0 -- -- 83
2019-09-27 09:00:00 13.4 5 Sur 19 Oeste 0 -- -- 78
2019-09-27 08:00:00 14.1 10 Oeste 19 Oeste 0 -- -- 69
2019-09-27 07:00:00 14.2 13 Oeste 21 Sudoeste 0 -- -- 70
2019-09-27 06:00:00 14 14 Oeste 23 Sudoeste 0 -- -- 73
2019-09-27 05:00:00 12.8 12 Sudoeste 19 Sudoeste 0 -- -- 80
2019-09-27 04:00:00 12.7 6 Oeste 26 Sudoeste 0 -- -- 80
2019-09-27 03:00:00 13.3 17 Sudoeste 25 Sudoeste 0 -- -- 81
2019-09-27 02:00:00 12.5 3 Norte 6 Norte 0 -- -- 86
2019-09-27 01:00:00 12.9 3 Norte 10 Oeste 0 -- -- 83
2019-09-27 00:00:00 13 4 Oeste 12 Oeste 0 -- -- 86
2019-09-26 23:00:00 12.6 3 Nordeste 7 Norte 0 -- -- 90
2019-09-26 22:00:00 13.8 3 Sudoeste 6 Sudoeste 0 -- -- 86
2019-09-26 21:00:00 14.6 0 Calma 4 Sur 0 -- -- 86
2019-09-26 20:00:00 15.9 3 Sudoeste 6 Sur 0 -- -- 86
2019-09-26 19:00:00 18.8 5 Sur 8 Sur 0 -- -- 75
2019-09-26 18:00:00 19.9 4 Sur 12 Sur 0 -- -- 74
2019-09-26 17:00:00 19.5 3 Este 11 Sudeste 0 -- -- 73
2019-09-26 16:00:00 19.5 6 Sudeste 13 Sur 0 -- -- 72
2019-09-26 15:00:00 18.6 5 Sudeste 12 Sur 0 -- -- 74
2019-09-26 14:00:00 17.5 5 Sur 15 Sur 0 -- -- 79
2019-09-26 13:00:00 15.2 6 Sudeste 11 Sur 0 -- -- 84
2019-09-26 12:00:00 14 4 Nordeste 9 Sur 0 -- -- 86
2019-09-26 11:00:00 12.4 3 Nordeste 6 Nordeste 0 -- -- 93
2019-09-26 10:00:00 11.3 0 Calma 8 Sudeste 0 -- -- 96
2019-09-26 09:00:00 11.1 3 Este 6 Sudeste 0 -- -- 96
2019-09-26 08:00:00 11.2 0 Calma 5 Nordeste 0 -- -- 97
2019-09-26 07:00:00 10.9 3 Norte 7 Norte 0 -- -- 97
2019-09-26 06:00:00 10.8 5 Norte 10 Norte 0 -- -- 97
2019-09-26 05:00:00 10.8 4 Noroeste 6 Noroeste 0 -- -- 96
2019-09-26 04:00:00 11.3 3 Oeste 6 Oeste 0 -- -- 96
2019-09-26 03:00:00 11.2 2 Norte 6 Sudoeste 0 -- -- 96
2019-09-26 02:00:00 11.4 3 Norte 8 Nordeste 0 -- -- 95
2019-09-26 01:00:00 12.1 4 Sudoeste 11 Oeste 0 -- -- 92
2019-09-26 00:00:00 12.3 0 Calma 6 Sudoeste 0 -- -- 92
2019-09-25 23:00:00 12.2 3 Sudoeste 5 Sudoeste 0 -- -- 93
2019-09-25 22:00:00 12.7 0 Calma 4 Sur 0 -- -- 92
2019-09-25 21:00:00 13.1 0 Calma 5 Sudeste 0 -- -- 91
2019-09-25 20:00:00 13.8 0 Calma 7 Sur 0 -- -- 88
2019-09-25 19:00:00 15 3 Sudoeste 8 Sudoeste 0 -- -- 85
2019-09-25 18:00:00 16 5 Sur 8 Sur 0 -- -- 80
2019-09-25 17:00:00 17.2 4 Sur 9 Sur 0 -- -- 71
2019-09-25 16:00:00 17.6 6 Sudeste 10 Sur 0 -- -- 72
2019-09-25 15:00:00 17.8 5 Sudeste 11 Sur 0 -- -- 69
2019-09-25 14:00:00 16.3 3 Norte 12 Sudeste 0 -- -- 68
2019-09-25 13:00:00 16.4 5 Este 12 Sur 0 -- -- 71
2019-09-25 12:00:00 15.2 7 Nordeste 13 Nordeste 0 -- -- 65
2019-09-25 11:00:00 14.2 3 Este 9 Sudeste 0 -- -- 75
2019-09-25 10:00:00 12.3 4 Sudeste 18 Sudoeste 0 -- -- 85
2019-09-25 09:00:00 11.5 9 Sudoeste 22 Sudoeste 0 -- -- 74
2019-09-25 08:00:00 10.9 8 Sudoeste 16 Oeste 0 -- -- 74
2019-09-25 07:00:00 10.6 8 Oeste 20 Oeste 0 -- -- 74
2019-09-25 06:00:00 11 7 Oeste 23 Oeste 0 -- -- 73
2019-09-25 05:00:00 11.5 15 Sudoeste 33 Sudoeste 0 -- -- 72
2019-09-25 04:00:00 10.9 9 Oeste 18 Oeste 0 -- -- 75
2019-09-25 03:00:00 11 8 Oeste 14 Oeste 0 -- -- 74
2019-09-25 02:00:00 11.4 11 Oeste 19 Oeste 0 -- -- 79
2019-09-25 01:00:00 11.1 4 Oeste 21 Sudoeste 0 -- -- 90
2019-09-25 00:00:00 11.4 6 Oeste 24 Oeste 0 -- -- 93
2019-09-24 23:00:00 11 7 Oeste 19 Sudoeste 0 -- -- 98
2019-09-24 22:00:00 11.2 2 Norte 6 Sudoeste 0 -- -- 98
2019-09-24 21:00:00 11.4 5 Sur 7 Sudoeste 0.2 -- -- 98
2019-09-24 20:00:00 11.9 4 Sudeste 7 Sudeste 0.6 -- -- 97
2019-09-24 19:00:00 12.4 2 Sudeste 12 Sudeste 0.6 -- -- 97
2019-09-24 18:00:00 12.9 3 Este 10 Nordeste 0.4 -- -- 97
2019-09-24 17:00:00 13.1 3 Este 10 Nordeste 0.2 -- -- 97
2019-09-24 16:00:00 13.6 2 Nordeste 8 Sudeste 0.2 -- -- 97
2019-09-24 15:00:00 13.7 3 Este 13 Norte 0 -- -- 96
2019-09-24 14:00:00 14.4 5 Nordeste 9 Nordeste 0 -- -- 95
2019-09-24 13:00:00 16 3 Nordeste 13 Nordeste 0 -- -- 91
2019-09-24 12:00:00 16.1 7 Nordeste 14 Nordeste 0 -- -- 87
2019-09-24 11:00:00 16.3 6 Sudeste 33 Nordeste 0 -- -- 89
2019-09-24 10:00:00 17.1 3 Este 8 Norte 0 -- -- 79
2019-09-24 09:00:00 15.9 5 Norte 10 Norte 0 -- -- 76
2019-09-24 08:00:00 15.3 5 Nordeste 14 Noroeste 0 -- -- 80
2019-09-24 07:00:00 15.4 4 Norte 9 Noroeste 1 -- -- 80
2019-09-24 06:00:00 16.4 9 Norte 19 Nordeste 0.2 -- -- 70
2019-09-24 05:00:00 17.5 8 Nordeste 13 Nordeste 0 -- -- 66
2019-09-24 04:00:00 17.1 11 Norte 17 Nordeste 0 -- -- 68
2019-09-24 03:00:00 16.6 3 Nordeste 11 Noroeste 0 -- -- 69
2019-09-24 02:00:00 15.9 9 Norte 18 Norte 0 -- -- 73
2019-09-24 01:00:00 15.6 6 Norte 13 Norte 0 -- -- 76
2019-09-24 00:00:00 15.5 7 Nordeste 18 Nordeste 0 -- -- 77
2019-09-23 23:00:00 14.8 10 Nordeste 22 Nordeste 0 -- -- 83
2019-09-23 22:00:00 14.2 11 Nordeste 19 Nordeste 1 -- -- 87
2019-09-23 21:00:00 15.1 5 Nordeste 16 Norte 0.2 -- -- 81
2019-09-23 20:00:00 15.1 11 Nordeste 16 Norte 0 -- -- 77
2019-09-23 19:00:00 15.7 2 Este 8 Nordeste 0.4 -- -- 78
2019-09-23 18:00:00 16.3 0 Calma 6 Sur 0 -- -- 75
2019-09-23 17:00:00 17.7 4 Sur 7 Norte 0 -- -- 67
2019-09-23 16:00:00 18.1 3 Sur 8 Nordeste 0 -- -- 63
2019-09-23 15:00:00 18.3 5 Nordeste 8 Sudeste 0 -- -- 56
2019-09-23 14:00:00 17.5 4 Sudeste 10 Nordeste 0 -- -- 60
2019-09-23 13:00:00 16.1 6 Nordeste 14 Nordeste 0 -- -- 61
2019-09-23 12:00:00 14.9 9 Nordeste 14 Nordeste 0 -- -- 66
2019-09-23 11:00:00 13.9 5 Sudoeste 9 Sudoeste 0 -- -- 75
2019-09-23 10:00:00 12 5 Nordeste 9 Nordeste 0 -- -- 82
2019-09-23 09:00:00 11.4 4 Sudoeste 8 Norte 0 -- -- 83
2019-09-23 08:00:00 10.7 0 Calma 5 Sur 0 -- -- 90
2019-09-23 07:00:00 10.9 0 Calma 5 Noroeste 0 -- -- 86
2019-09-23 06:00:00 10.7 3 Norte 5 Norte 0 -- -- 89
2019-09-23 05:00:00 10.7 3 Nordeste 5 Sudoeste 0 -- -- 91
2019-09-23 04:00:00 10.7 3 Sudoeste 9 Nordeste 0 -- -- 93
2019-09-23 03:00:00 10.3 5 Nordeste 9 Nordeste 0 -- -- 93
2019-09-23 02:00:00 10.8 3 Noroeste 7 Sudoeste 0 -- -- 91
2019-09-23 01:00:00 10.9 3 Oeste 8 Nordeste 0 -- -- 94
2019-09-23 00:00:00 10.9 4 Nordeste 9 Norte 0 -- -- 93
2019-09-22 23:00:00 11.5 4 Norte 10 Noroeste 0.2 -- -- 90
2019-09-22 22:00:00 11.1 2 Nordeste 8 Norte 1.8 -- -- 92
2019-09-22 21:00:00 11.7 7 Oeste 24 Nordeste 0 -- -- 87
2019-09-22 20:00:00 12.3 11 Norte 24 Nordeste 0 -- -- 86
2019-09-22 19:00:00 13.6 3 Nordeste 9 Sur 0 -- -- 88
2019-09-22 18:00:00 14 4 Sudeste 19 Nordeste 0 -- -- 85
2019-09-22 17:00:00 14.4 5 Este 16 Nordeste 0 -- -- 83
2019-09-22 16:00:00 14.6 11 Nordeste 27 Nordeste 0 -- -- 81
2019-09-22 15:00:00 15.9 7 Nordeste 14 Nordeste 0 -- -- 75
2019-09-22 14:00:00 17.3 5 Nordeste 12 Este 0 -- -- 73
2019-09-22 13:00:00 16.2 4 Nordeste 12 Nordeste 0 -- -- 74
2019-09-22 12:00:00 15 5 Este 10 Sudeste 0 -- -- 72
2019-09-22 11:00:00 13.1 4 Nordeste 11 Nordeste 0 -- -- 81
2019-09-22 10:00:00 11.1 5 Nordeste 11 Norte 0 -- -- 98
2019-09-22 09:00:00 11.2 3 Norte 8 Oeste 0 -- -- 98
2019-09-22 08:00:00 11.6 4 Sudeste 9 Nordeste 0 -- -- 98
2019-09-22 07:00:00 11.6 3 Sudoeste 6 Oeste 0.2 -- -- 98
2019-09-22 06:00:00 11.8 4 Noroeste 14 Norte 0 -- -- 98
2019-09-22 05:00:00 11.4 5 Sur 13 Sur 0 -- -- 98
2019-09-22 04:00:00 11.6 6 Sudeste 14 Sudoeste 0.2 -- -- 97
2019-09-22 03:00:00 11.7 8 Sudoeste 12 Sur 1 -- -- 97
2019-09-22 02:00:00 12.4 9 Nordeste 26 Nordeste 0.6 -- -- 96
2019-09-22 01:00:00 14.2 13 Nordeste 23 Nordeste 0.2 -- -- 95
2019-09-22 00:00:00 15.4 14 Nordeste 22 Este 0 -- -- 88
2019-09-21 23:00:00 19 12 Sur 54 Oeste 0 -- -- 62
2019-09-21 22:00:00 20.2 44 Sudoeste 72 Sudoeste 0 -- -- 55
2019-09-21 21:00:00 18.7 19 Sur 44 Sudoeste 0 -- -- 61
2019-09-21 20:00:00 17.6 7 Nordeste 19 Noroeste 0 -- -- 70
2019-09-21 19:00:00 20.3 8 Oeste 31 Sudeste 0 -- -- 56
2019-09-21 18:00:00 20.4 15 Sur 36 Sur 0 -- -- 56
2019-09-21 17:00:00 21.4 15 Sur 68 Sudoeste 0 -- -- 55
2019-09-21 16:00:00 21.7 28 Sudoeste 54 Sudoeste 0 -- -- 49
2019-09-21 15:00:00 19.8 21 Oeste 54 Oeste 0 -- -- 53
2019-09-21 14:00:00 18.7 9 Este 51 Oeste 0 -- -- 59
2019-09-21 13:00:00 18.9 25 Oeste 47 Oeste 0 -- -- 51
2019-09-21 12:00:00 19.9 19 Sur 43 Sudoeste 0 -- -- 50
2019-09-21 11:00:00 19 20 Sudoeste 40 Oeste 0 -- -- 52
2019-09-21 10:00:00 17.9 8 Noroeste 30 Sudoeste 0 -- -- 59
2019-09-21 09:00:00 15.8 5 Nordeste 20 Nordeste 0 -- -- 74
2019-09-21 08:00:00 15.2 9 Norte 16 Norte 0 -- -- 78
2019-09-21 07:00:00 15.3 8 Nordeste 16 Nordeste 0 -- -- 78
2019-09-21 06:00:00 15.7 8 Nordeste 20 Nordeste 0 -- -- 76
2019-09-21 05:00:00 15.7 11 Nordeste 17 Nordeste 0 -- -- 76
2019-09-21 04:00:00 15.5 9 Nordeste 21 Norte 0 -- -- 77
2019-09-21 03:00:00 15.7 11 Nordeste 21 Este 0 -- -- 76
2019-09-21 02:00:00 16.6 9 Nordeste 29 Sudeste 0 -- -- 71
2019-09-21 01:00:00 17 6 Nordeste 15 Nordeste 0 -- -- 69
2019-09-21 00:00:00 17.3 8 Nordeste 21 Este 0 -- -- 67
2019-09-20 23:00:00 18 9 Este 24 Este 0 -- -- 60
2019-09-20 22:00:00 18.5 8 Norte 21 Noroeste 0 -- -- 60
2019-09-20 21:00:00 19.7 9 Oeste 27 Sudoeste 0 -- -- 57
2019-09-20 20:00:00 19.5 6 Norte 19 Sudeste 0 -- -- 63
2019-09-20 19:00:00 21.3 5 Este 26 Sudeste 0 -- -- 56
2019-09-20 18:00:00 22.6 18 Sur 39 Sur 0 -- -- 56
2019-09-20 17:00:00 23.1 5 Este 8 Este 0 -- -- 61
2019-09-20 16:00:00 22.3 6 Norte 20 Sudeste 0 -- -- 62
2019-09-20 15:00:00 23.4 7 Este 20 Sudeste 0 -- -- 58
2019-09-20 14:00:00 23.7 5 Este 17 Nordeste 0 -- -- 57
2019-09-20 13:00:00 22.2 8 Nordeste 15 Nordeste 0 -- -- 63
2019-09-20 12:00:00 21.4 6 Nordeste 18 Nordeste 0 -- -- 60
2019-09-20 11:00:00 19.7 10 Nordeste 13 Nordeste 0 -- -- 66
2019-09-20 10:00:00 18.7 7 Nordeste 14 Norte 0 -- -- 67
2019-09-20 09:00:00 17.3 8 Nordeste 13 Nordeste 0 -- -- 67
2019-09-20 08:00:00 17 4 Nordeste 12 Norte 0 -- -- 63
2019-09-20 07:00:00 16.8 5 Norte 10 Norte 0 -- -- 65
2019-09-20 06:00:00 16.9 5 Norte 12 Norte 0 -- -- 65
2019-09-20 05:00:00 16.5 7 Norte 11 Norte 0 -- -- 70
2019-09-20 04:00:00 16.4 5 Norte 11 Noroeste 0 -- -- 73
2019-09-20 03:00:00 16 4 Norte 8 Nordeste 0 -- -- 78
2019-09-20 02:00:00 15.3 2 Norte 7 Sudoeste 0 -- -- 85
2019-09-20 01:00:00 14.6 2 Noroeste 7 Sudoeste 0 -- -- 92
2019-09-20 00:00:00 14.6 3 Sudoeste 10 Nordeste 0 -- -- 93